Time;durP1;ratioP1;P1;durP2;ratioP2;P2;SDS_P1;SDS_P2;PMS_P1;PMS_P2;Temp;Humidity;BMP_temperature;BMP_pressure;BME280_temperature;BME280_humidity;BME280_pressure;Samples;Min_cycle;Max_cycle;Signal;HPM_P1;HPM_P2
2023/08/04 00:00:10;;;;;;;;;;;;;;;16.29;82.72;100902.63;7402524;19;19986;-77
2023/08/04 00:02:38;;;;;;;;;;;;;;;16.27;83.11;100900.13;7400888;19;20014;-76
2023/08/04 00:05:11;;;;;;;8.27;1.35;;;;;;;16.42;82.19;100905.31;7398075;19;19990;-76
2023/08/04 00:07:44;;;;;;;6.10;1.70;;;;;;;16.40;81.98;100909.28;7398613;19;19922;-77
2023/08/04 00:10:13;;;;;;;4.78;1.50;;;;;;;16.38;82.00;100905.94;7398953;19;19947;-76
2023/08/04 00:12:42;;;;;;;4.75;1.73;;;;;;;16.40;81.83;100912.00;7398083;19;19919;-76
2023/08/04 00:15:11;;;;;;;3.95;1.08;;;;;;;16.41;81.91;100916.38;7398540;19;19915;-76
2023/08/04 00:17:40;;;;;;;5.68;1.38;;;;;;;16.42;81.59;100915.34;7398220;19;19923;-76
2023/08/04 00:20:11;;;;;;;5.25;1.40;;;;;;;16.41;81.61;100922.66;7399976;19;19926;-76
2023/08/04 00:22:42;;;;;;;6.90;1.75;;;;;;;16.40;81.63;100921.00;7397246;19;19922;-76
2023/08/04 00:25:11;;;;;;;4.93;1.45;;;;;;;16.42;81.51;100918.91;7398960;19;20366;-76
2023/08/04 00:27:39;;;;;;;4.57;1.27;;;;;;;16.45;81.31;100923.06;7396652;19;20008;-76
2023/08/04 00:30:10;;;;;;;4.95;1.55;;;;;;;16.44;81.16;100914.06;7398864;19;20398;-76
2023/08/04 00:32:39;;;;;;;5.60;1.60;;;;;;;16.45;81.64;100920.34;7398117;19;19930;-76
2023/08/04 00:35:08;;;;;;;5.40;1.50;;;;;;;16.45;81.73;100920.34;7398704;19;20286;-76
2023/08/04 00:37:37;;;;;;;4.75;1.40;;;;;;;16.45;81.84;100920.34;7400551;19;20373;-76
2023/08/04 00:40:10;;;;;;;12.48;1.98;;;;;;;16.41;81.66;100927.25;7399216;19;19922;-76
2023/08/04 00:42:39;;;;;;;4.22;1.65;;;;;;;16.35;81.88;100926.25;7398873;19;20341;-76
2023/08/04 00:45:09;;;;;;;6.05;1.70;;;;;;;16.33;81.89;100931.06;7398303;19;19918;-76
2023/08/04 00:47:38;;;;;;;5.28;1.70;;;;;;;16.29;81.92;100935.25;7398113;19;19939;-76
2023/08/04 00:50:09;;;;;;;6.25;1.60;;;;;;;16.26;82.32;100935.69;7397222;19;19951;-76
2023/08/04 00:52:40;;;;;;;5.13;1.52;;;;;;;16.24;82.06;100929.63;7397994;19;19922;-75
2023/08/04 00:55:15;;;;;;;11.45;1.63;;;;;;;16.22;82.53;100934.44;7397037;19;20575;-76
2023/08/04 00:57:45;;;;;;;5.53;1.70;;;;;;;16.21;82.42;100936.31;7398077;19;19919;-76
2023/08/04 01:00:15;;;;;;;6.55;1.83;;;;;;;16.18;82.84;100935.91;7397667;19;19922;-76
2023/08/04 01:02:43;;;;;;;5.18;1.40;;;;;;;16.15;82.44;100939.88;7398274;19;20345;-77
2023/08/04 01:05:12;;;;;;;4.72;1.42;;;;;;;16.13;82.83;100938.44;7396621;19;20336;-76
2023/08/04 01:07:48;;;;;;;8.65;2.05;;;;;;;16.10;83.42;100936.94;7398910;19;19936;-77
2023/08/04 01:10:29;;;;;;;3.97;1.25;;;;;;;16.06;83.22;100938.41;7397646;19;19922;-76
2023/08/04 01:13:06;;;;;;;5.05;1.88;;;;;;;16.06;83.05;100935.69;7397413;19;19933;-76
2023/08/04 01:15:35;;;;;;;5.50;1.40;;;;;;;16.04;82.66;100940.53;7399143;19;19922;-76
2023/08/04 01:18:03;;;;;;;7.28;1.67;;;;;;;16.02;83.29;100931.75;7396500;19;19944;-76
2023/08/04 01:20:32;;;;;;;3.65;1.40;;;;;;;15.99;83.15;100940.31;7398636;19;19931;-76
2023/08/04 01:23:03;;;;;;;4.70;1.45;;;;;;;15.97;83.19;100938.84;7396588;19;19926;-75
2023/08/04 01:25:35;;;;;;;6.50;1.73;;;;;;;15.93;82.97;100941.16;7396882;19;19931;-77
2023/08/04 01:28:08;;;;;;;5.22;1.73;;;;;;;15.89;83.20;100935.31;7399896;19;19953;-76
2023/08/04 01:30:37;;;;;;;4.15;1.20;;;;;;;15.88;83.35;100935.50;7403975;19;19922;-76
2023/08/04 01:33:06;;;;;;;6.43;1.67;;;;;;;15.83;83.54;100930.69;7403047;19;20001;-76
2023/08/04 01:35:35;;;;;;;7.07;1.55;;;;;;;15.78;83.08;100932.41;7403386;19;19930;-76
2023/08/04 01:38:06;;;;;;;4.60;1.05;;;;;;;15.73;83.26;100933.03;7403660;19;19931;-77
2023/08/04 01:40:35;;;;;;;5.07;1.10;;;;;;;15.67;83.67;100939.28;7402914;19;19947;-76
2023/08/04 01:43:03;;;;;;;4.63;1.80;;;;;;;15.66;83.71;100944.94;7402964;19;19922;-76
2023/08/04 01:45:32;;;;;;;7.43;1.70;;;;;;;15.65;83.52;100945.97;7400658;19;20316;-76
2023/08/04 01:48:00;;;;;;;7.35;1.52;;;;;;;15.63;83.77;100940.75;7402536;19;19967;-76
2023/08/04 01:50:29;;;;;;;4.28;1.17;;;;;;;15.61;84.21;100942.00;7402268;19;23599;-76
2023/08/04 01:53:01;;;;;;;6.32;1.73;;;;;;;15.62;84.13;100943.69;7399617;19;19926;-76
2023/08/04 01:55:33;;;;;;;3.35;1.23;;;;;;;15.61;84.21;100944.72;7401572;19;19953;-77
2023/08/04 01:58:01;;;;;;;5.18;1.23;;;;;;;15.58;83.81;100940.53;7402218;19;19981;-76
2023/08/04 02:00:30;;;;;;;7.18;1.63;;;;;;;15.57;84.20;100947.03;7400767;19;19922;-76
2023/08/04 02:02:58;;;;;;;6.80;1.58;;;;;;;15.55;83.96;100948.25;7401832;19;19927;-75
2023/08/04 02:05:27;;;;;;;4.38;1.40;;;;;;;15.51;84.42;100953.28;7400622;19;19983;-76
2023/08/04 02:07:55;;;;;;;4.13;1.33;;;;;;;15.49;84.19;100960.75;7402118;19;19947;-76
2023/08/04 02:10:24;;;;;;;5.72;1.52;;;;;;;15.48;84.41;100958.25;7401255;19;19919;-76
2023/08/04 02:12:55;;;;;;;7.55;1.35;;;;;;;15.46;84.55;100961.16;7402045;19;19927;-76
2023/08/04 02:15:24;;;;;;;7.50;1.20;;;;;;;15.47;84.21;100953.84;7401525;19;20337;-76
2023/08/04 02:17:52;;;;;;;4.25;1.50;;;;;;;15.45;84.43;100949.47;7401919;19;19958;-76
2023/08/04 02:20:21;;;;;;;4.20;1.40;;;;;;;15.49;84.70;100952.59;7401662;19;19943;-76
2023/08/04 02:22:49;;;;;;;8.68;1.70;;;;;;;15.50;84.00;100962.44;7400677;19;19958;-77
2023/08/04 02:25:18;;;;;;;8.00;2.10;;;;;;;15.51;84.19;100964.13;7400568;19;19933;-76
2023/08/04 02:27:47;;;;;;;4.90;1.60;;;;;;;15.51;84.06;100963.28;7398740;19;19926;-77
2023/08/04 02:30:18;;;;;;;5.82;1.70;;;;;;;15.47;84.48;100968.28;7401439;19;20594;-76
2023/08/04 02:32:46;;;;;;;5.07;1.50;;;;;;;15.45;84.47;100952.19;7399864;19;20353;-76
2023/08/04 02:35:15;;;;;;;4.63;1.27;;;;;;;15.45;84.28;100960.31;7400972;19;20242;-76
2023/08/04 02:37:44;;;;;;;5.65;1.40;;;;;;;15.44;84.70;100963.25;7399046;19;19918;-77
2023/08/04 02:40:13;;;;;;;4.90;1.20;;;;;;;15.43;84.72;100959.72;7399098;19;19931;-76
2023/08/04 02:42:42;;;;;;;3.60;1.23;;;;;;;15.41;84.57;100961.78;7399353;19;19926;-76
2023/08/04 02:45:12;;;;;;;7.20;1.50;;;;;;;15.41;84.43;100972.63;7400216;19;19922;-77
2023/08/04 02:47:43;;;;;;;4.30;1.30;;;;;;;15.39;85.08;100972.03;7397210;19;19944;-76
2023/08/04 02:50:12;;;;;;;3.75;1.20;;;;;;;15.38;85.02;100974.94;7401595;19;19947;-76
2023/08/04 02:52:41;;;;;;;3.95;1.40;;;;;;;15.38;85.18;100972.22;7400311;19;19919;-76
2023/08/04 02:55:11;;;;;;;6.00;1.20;;;;;;;15.41;85.04;100975.34;7401446;19;19918;-76
2023/08/04 02:57:41;;;;;;;7.07;1.60;;;;;;;15.44;85.17;100980.34;7400718;19;20578;-76
2023/08/04 03:00:11;;;;;;;3.25;1.02;;;;;;;15.49;84.88;100985.19;7400733;19;19931;-76
2023/08/04 03:02:39;;;;;;;3.33;1.20;;;;;;;15.51;84.74;100985.84;7400689;19;19926;-76
2023/08/04 03:05:11;;;;;;;2.78;1.20;;;;;;;15.52;84.68;100986.69;7399506;19;19951;-76
2023/08/04 03:07:39;;;;;;;6.40;1.20;;;;;;;15.52;84.99;100994.84;7398579;19;19926;-76
2023/08/04 03:10:09;;;;;;;6.22;1.50;;;;;;;15.54;84.90;100990.88;7400227;19;19955;-77
2023/08/04 03:12:38;;;;;;;4.90;1.30;;;;;;;15.55;85.14;100991.69;7401196;19;19947;-77
2023/08/04 03:15:07;;;;;;;2.50;1.20;;;;;;;15.56;85.28;100994.22;7399611;19;19918;-76
2023/08/04 03:17:36;;;;;;;3.28;1.20;;;;;;;15.57;85.50;101003.22;7399947;19;20401;-77
2023/08/04 03:20:04;;;;;;;5.88;1.67;;;;;;;15.55;85.11;100995.25;7399532;19;19922;-76
2023/08/04 03:22:36;;;;;;;2.08;0.93;;;;;;;15.56;85.09;101007.81;7400501;19;19919;-77
2023/08/04 03:25:05;;;;;;;2.97;1.13;;;;;;;15.55;85.52;101008.00;7399200;19;19943;-77
2023/08/04 03:27:33;;;;;;;3.83;1.10;;;;;;;15.55;85.71;101008.84;7398852;19;19933;-76
2023/08/04 03:30:02;;;;;;;6.28;1.23;;;;;;;15.57;85.44;101016.78;7399938;19;20350;-76
2023/08/04 03:32:31;;;;;;;4.40;1.10;;;;;;;15.55;85.60;101002.56;7400624;19;19915;-77
2023/08/04 03:34:59;;;;;;;4.95;1.05;;;;;;;15.55;85.67;101010.72;7400374;19;20352;-77
2023/08/04 03:37:28;;;;;;;2.00;0.95;;;;;;;15.55;85.62;101013.41;7399447;19;20369;-76
2023/08/04 03:39:59;;;;;;;3.65;1.00;;;;;;;15.54;85.61;101018.00;7401309;19;19939;-77
2023/08/04 03:42:27;;;;;;;2.13;0.80;;;;;;;15.52;85.87;101016.56;7399379;19;19926;-77
2023/08/04 03:44:56;;;;;;;3.40;1.17;;;;;;;15.49;86.29;101020.47;7400253;19;19911;-77
2023/08/04 03:47:24;;;;;;;4.35;1.40;;;;;;;15.47;86.16;101021.72;7398334;19;19926;-77
2023/08/04 03:49:53;;;;;;;3.28;1.13;;;;;;;15.44;86.32;101015.66;7399614;19;20272;-77
2023/08/04 03:52:22;;;;;;;4.28;1.10;;;;;;;15.45;85.97;101021.94;7399252;19;19923;-76
2023/08/04 03:54:50;;;;;;;5.78;0.90;;;;;;;15.44;86.09;101023.81;7400573;19;19955;-77
2023/08/04 03:57:21;;;;;;;2.55;0.95;;;;;;;15.44;86.30;101029.22;7400257;19;20340;-77
2023/08/04 03:59:52;;;;;;;3.70;0.90;;;;;;;15.42;86.37;101031.34;7400805;19;19934;-77
2023/08/04 04:02:21;;;;;;;2.80;0.90;;;;;;;15.45;85.94;101033.63;7399374;19;19947;-76
2023/08/04 04:04:49;;;;;;;5.10;1.23;;;;;;;15.46;86.36;101037.19;7400431;19;20467;-78
2023/08/04 04:07:18;;;;;;;4.28;1.25;;;;;;;15.44;86.43;101034.66;7399302;19;19915;-77
2023/08/04 04:09:47;;;;;;;2.47;0.93;;;;;;;15.43;86.71;101043.88;7398830;19;19922;-77
2023/08/04 04:12:15;;;;;;;2.53;1.08;;;;;;;15.42;86.56;101038.63;7399880;19;19929;-77
2023/08/04 04:14:46;;;;;;;2.97;1.40;;;;;;;15.42;86.35;101047.63;7398878;19;19923;-76
2023/08/04 04:17:15;;;;;;;5.25;1.63;;;;;;;15.41;86.39;101045.09;7398692;19;19950;-76
2023/08/04 04:19:44;;;;;;;4.30;1.00;;;;;;;15.41;86.58;101053.25;7397528;19;19922;-76
2023/08/04 04:22:12;;;;;;;3.97;1.13;;;;;;;15.41;86.48;101055.97;7396601;19;19926;-77
2023/08/04 04:24:41;;;;;;;3.58;1.20;;;;;;;15.40;86.43;101057.84;7397099;19;20390;-77
2023/08/04 04:27:11;;;;;;;5.75;1.20;;;;;;;15.41;86.71;101064.94;7396583;19;19926;-77
2023/08/04 04:29:40;;;;;;;3.40;1.13;;;;;;;15.43;86.35;101065.59;7397144;19;19993;-75
2023/08/04 04:32:11;;;;;;;5.05;1.35;;;;;;;15.43;86.74;101071.03;7398520;19;19927;-77
2023/08/04 04:34:40;;;;;;;2.50;0.95;;;;;;;15.45;86.77;101074.34;7396766;19;20033;-76
2023/08/04 04:37:08;;;;;;;3.08;1.00;;;;;;;15.47;86.44;101070.59;7398924;19;20293;-77
2023/08/04 04:39:37;;;;;;;5.97;1.55;;;;;;;15.47;86.73;101074.16;7397596;19;19922;-77
2023/08/04 04:42:06;;;;;;;2.75;1.15;;;;;;;15.47;86.45;101079.59;7398991;19;19922;-76
2023/08/04 04:44:35;;;;;;;1.92;1.17;;;;;;;15.49;86.68;101087.53;7397670;19;19990;-77
2023/08/04 04:47:04;;;;;;;4.20;1.88;;;;;;;15.50;86.08;101086.47;7396570;19;19922;-76
2023/08/04 04:49:36;;;;;;;7.53;1.60;;;;;;;15.50;86.52;101092.78;7395389;19;20417;-77
2023/08/04 04:52:04;;;;;;;3.33;1.15;;;;;;;15.53;86.05;101092.41;7396798;19;20337;-77
2023/08/04 04:54:33;;;;;;;3.17;0.90;;;;;;;15.56;86.15;101102.84;7397503;19;20294;-77
2023/08/04 04:57:01;;;;;;;3.13;1.10;;;;;;;15.57;86.17;101098.25;7396694;19;19943;-77
2023/08/04 04:59:30;;;;;;;3.35;1.17;;;;;;;15.57;86.00;101104.53;7396633;19;19930;-76
2023/08/04 05:01:59;;;;;;;6.47;1.00;;;;;;;15.57;85.70;101106.41;7393582;19;20245;-76
2023/08/04 05:04:28;;;;;;;2.05;0.95;;;;;;;15.57;85.26;101109.97;7397138;19;20487;-77
2023/08/04 05:06:59;;;;;;;3.88;1.05;;;;;;;15.54;85.17;101117.66;7395343;19;19919;-77
2023/08/04 05:09:27;;;;;;;4.07;0.80;;;;;;;15.51;85.26;101118.91;7396784;19;19934;-77
2023/08/04 05:11:56;;;;;;;2.90;1.08;;;;;;;15.46;85.31;101129.50;7395611;19;20011;-77
2023/08/04 05:14:24;;;;;;;1.52;1.10;;;;;;;15.40;85.09;101133.03;7396945;19;19918;-76
2023/08/04 05:16:53;;;;;;;5.13;1.35;;;;;;;15.36;85.15;101123.59;7396800;19;19922;-77
2023/08/04 05:19:22;;;;;;;1.48;1.05;;;;;;;15.33;85.58;101127.56;7397202;19;19926;-77
2023/08/04 05:21:51;;;;;;;1.58;0.82;;;;;;;15.31;85.55;101126.94;7396695;19;20015;-77
2023/08/04 05:24:22;;;;;;;2.72;1.02;;;;;;;15.28;85.98;101121.06;7395701;19;19922;-76
2023/08/04 05:26:50;;;;;;;3.67;1.15;;;;;;;15.26;85.93;101120.44;7396000;19;19930;-76
2023/08/04 05:29:19;;;;;;;2.30;0.80;;;;;;;15.24;85.59;101130.66;7395324;19;19957;-77
2023/08/04 05:31:48;;;;;;;1.05;0.70;;;;;;;15.22;85.49;101138.16;7397806;19;19922;-77
2023/08/04 05:34:16;;;;;;;3.35;1.13;;;;;;;15.19;86.09;101133.97;7396595;19;19951;-77
2023/08/04 05:36:45;;;;;;;1.33;0.82;;;;;;;15.23;85.66;101135.22;7397430;19;19927;-77
2023/08/04 05:39:13;;;;;;;1.38;0.82;;;;;;;15.28;85.36;101131.91;7395808;19;19939;-76
2023/08/04 05:41:45;;;;;;;2.10;0.90;;;;;;;15.35;85.36;101141.78;7397806;19;19923;-76
2023/08/04 05:44:14;;;;;;;;;;;;;;;15.25;85.56;101140.47;7397442;19;20291;-76
2023/08/04 05:46:42;;;;;;;2.78;0.80;;;;;;;15.35;85.26;101147.22;7396182;19;19930;-76
2023/08/04 05:49:11;;;;;;;0.90;0.60;;;;;;;15.41;85.30;101146.41;7396149;19;20286;-77
2023/08/04 05:51:39;;;;;;;1.10;0.68;;;;;;;15.51;85.10;101150.66;7395642;19;20365;-76
2023/08/04 05:54:08;;;;;;;1.85;0.70;;;;;;;15.59;85.14;101155.91;7395872;19;20455;-76
2023/08/04 05:56:36;;;;;;;1.70;0.68;;;;;;;15.63;84.37;101159.88;7395166;19;19918;-76
2023/08/04 05:59:07;;;;;;;1.63;0.68;;;;;;;15.70;84.09;101156.19;7395430;19;19930;-76
2023/08/04 06:01:36;;;;;;;1.15;0.93;;;;;;;15.72;83.69;101162.22;7395117;19;19927;-76
2023/08/04 06:04:06;;;;;;;4.05;0.90;;;;;;;15.74;84.10;101172.91;7395106;19;19925;-76
2023/08/04 06:06:34;;;;;;;1.63;0.80;;;;;;;15.75;84.28;101179.97;7393776;19;19923;-76
2023/08/04 06:09:03;;;;;;;1.98;0.70;;;;;;;15.76;83.98;101178.94;7394782;19;19926;-76
2023/08/04 06:11:32;;;;;;;1.23;0.85;;;;;;;15.76;84.07;101187.09;7393813;19;19952;-76
2023/08/04 06:14:00;;;;;;;1.25;0.68;;;;;;;15.76;83.64;101185.22;7399475;19;19926;-76
2023/08/04 06:16:31;;;;;;;1.58;0.80;;;;;;;15.78;84.13;101187.75;7400485;19;19939;-76
2023/08/04 06:19:00;;;;;;;1.67;0.90;;;;;;;15.82;84.47;101180.88;7402391;19;19926;-76
2023/08/04 06:21:35;;;;;;;3.25;0.60;;;;;;;15.87;83.39;101181.09;7400435;19;20260;-76
2023/08/04 06:24:04;;;;;;;1.45;0.77;;;;;;;15.89;84.15;101187.16;7401446;19;19923;-75
2023/08/04 06:26:32;;;;;;;3.90;0.82;;;;;;;15.92;83.75;101189.44;7400762;19;19926;-76
2023/08/04 06:29:01;;;;;;;1.90;0.98;;;;;;;15.97;83.25;101189.69;7399053;19;19935;-76
2023/08/04 06:31:32;;;;;;;2.03;0.82;;;;;;;15.98;82.84;101190.53;7401521;19;19929;-77
2023/08/04 06:34:01;;;;;;;1.90;0.80;;;;;;;16.02;83.17;101195.34;7401995;19;20340;-76
2023/08/04 06:36:29;;;;;;;0.88;0.70;;;;;;;16.06;82.94;101196.59;7401767;19;20329;-76
2023/08/04 06:38:58;;;;;;;2.88;1.10;;;;;;;16.08;82.87;101202.69;7401374;19;19911;-76
2023/08/04 06:41:26;;;;;;;1.10;0.70;;;;;;;16.08;82.96;101199.97;7401592;19;19947;-76
2023/08/04 06:43:55;;;;;;;0.93;0.60;;;;;;;16.13;82.68;101202.91;7400962;19;19927;-76
2023/08/04 06:46:23;;;;;;;2.03;0.77;;;;;;;16.18;82.67;101200.41;7399465;19;19982;-75
2023/08/04 06:48:55;;;;;;;1.20;0.65;;;;;;;16.22;82.54;101206.28;7397742;19;19922;-76
2023/08/04 06:51:23;;;;;;;1.35;0.73;;;;;;;16.26;82.77;101213.81;7401206;19;19919;-76
2023/08/04 06:53:52;;;;;;;3.85;0.75;;;;;;;16.32;83.03;101212.97;7401455;19;20634;-76
2023/08/04 06:56:21;;;;;;;1.48;0.63;;;;;;;16.39;82.65;101214.88;7401473;19;19982;-76
2023/08/04 06:58:49;;;;;;;1.13;0.93;;;;;;;16.44;82.76;101209.66;7400021;19;19942;-76
2023/08/04 07:01:18;;;;;;;1.20;0.80;;;;;;;16.47;82.52;101222.84;7402044;19;19968;-77
2023/08/04 07:03:47;;;;;;;4.93;1.00;;;;;;;16.47;82.75;101214.69;7400639;19;19955;-76
2023/08/04 07:06:19;;;;;;;1.83;1.00;;;;;;;16.47;82.41;101220.97;7401261;19;19915;-76
2023/08/04 07:08:48;;;;;;;4.18;1.27;;;;;;;16.50;82.57;101225.97;7398712;19;19926;-76
2023/08/04 07:11:17;;;;;;;6.95;1.20;;;;;;;16.52;82.48;101229.34;7401065;19;19922;-76
2023/08/04 07:13:46;;;;;;;1.70;0.88;;;;;;;16.52;82.61;101218.47;7401082;19;19929;-76
2023/08/04 07:16:15;;;;;;;4.40;1.23;;;;;;;16.52;82.44;101228.50;7399116;19;19965;-76
2023/08/04 07:18:43;;;;;;;1.65;0.90;;;;;;;16.51;82.63;101230.38;7400386;19;20377;-76
2023/08/04 07:21:13;;;;;;;4.18;1.52;;;;;;;16.55;82.72;101231.66;7399348;19;20286;-76
2023/08/04 07:23:45;;;;;;;3.45;1.17;;;;;;;16.61;82.99;101236.28;7400449;19;20262;-76
2023/08/04 07:26:13;;;;;;;3.72;1.48;;;;;;;16.72;82.64;101235.66;7396898;19;19956;-76
2023/08/04 07:28:42;;;;;;;5.72;1.20;;;;;;;16.80;82.30;101245.50;7398099;19;19926;-76
2023/08/04 07:31:12;;;;;;;2.83;1.40;;;;;;;16.82;82.19;101243.44;7399168;19;19926;-76
2023/08/04 07:33:41;;;;;;;3.00;1.05;;;;;;;16.85;81.91;101244.88;7399755;19;19939;-76
2023/08/04 07:36:10;;;;;;;3.63;1.20;;;;;;;16.88;81.64;101245.28;7397959;19;19918;-76
2023/08/04 07:38:38;;;;;;;2.72;1.00;;;;;;;16.91;81.74;101241.34;7400735;19;19943;-76
2023/08/04 07:41:09;;;;;;;1.98;0.88;;;;;;;16.95;81.56;101239.88;7398308;19;19948;-76
2023/08/04 07:43:38;;;;;;;2.67;1.20;;;;;;;17.02;81.44;101235.25;7399805;19;20787;-76
2023/08/04 07:46:07;;;;;;;5.47;1.02;;;;;;;17.10;81.57;101241.31;7397093;19;19918;-76
2023/08/04 07:48:35;;;;;;;3.80;1.00;;;;;;;17.19;81.30;101237.34;7397646;19;19919;-76
2023/08/04 07:51:04;;;;;;;3.42;1.00;;;;;;;17.26;80.67;101241.94;7399721;19;19939;-76
2023/08/04 07:53:32;;;;;;;3.45;0.90;;;;;;;17.33;81.09;101243.59;7398893;19;20002;-77
2023/08/04 07:56:01;;;;;;;4.30;1.30;;;;;;;17.40;80.62;101244.41;7399450;19;19926;-76
2023/08/04 07:58:32;;;;;;;4.97;1.20;;;;;;;17.49;80.18;101239.56;7397711;19;20286;-76
2023/08/04 08:01:03;;;;;;;1.92;1.02;;;;;;;17.60;80.31;101237.06;7398944;19;19935;-77
2023/08/04 08:03:32;;;;;;;4.10;1.10;;;;;;;17.66;79.17;101249.00;7398426;19;19951;-77
2023/08/04 08:06:00;;;;;;;3.55;1.35;;;;;;;17.71;78.94;101245.63;7398510;19;19934;-77
2023/08/04 08:08:30;;;;;;;2.65;1.60;;;;;;;17.82;78.43;101245.78;7396386;19;19939;-76
2023/08/04 08:11:02;;;;;;;3.05;1.08;;;;;;;17.87;77.66;101250.59;7398284;19;19925;-77
2023/08/04 08:13:33;;;;;;;5.43;1.27;;;;;;;17.91;77.97;101249.09;7397329;19;19953;-77
2023/08/04 08:16:08;;;;;;;4.03;1.10;;;;;;;17.89;75.72;101249.34;7398305;19;19926;-76
2023/08/04 08:18:37;;;;;;;2.72;0.80;;;;;;;17.95;76.66;101253.91;7397540;19;19959;-76
2023/08/04 08:21:09;;;;;;;3.20;0.93;;;;;;;17.93;76.10;101253.31;7397982;19;19922;-76
2023/08/04 08:23:38;;;;;;;3.05;1.10;;;;;;;17.97;76.93;101251.81;7396423;19;20334;-77
2023/08/04 08:26:07;;;;;;;6.53;1.48;;;;;;;18.00;77.21;101256.84;7397998;19;19947;-76
2023/08/04 08:28:38;;;;;;;1.48;0.98;;;;;;;18.04;76.51;101262.69;7394996;19;19926;-76
2023/08/04 08:31:07;;;;;;;3.05;1.33;;;;;;;18.17;76.23;101268.09;7398121;19;19930;-76
2023/08/04 08:33:36;;;;;;;3.17;1.00;;;;;;;18.31;75.95;101258.78;7396783;19;19942;-75
2023/08/04 08:36:05;;;;;;;2.47;1.05;;;;;;;18.47;75.70;101262.88;7399513;19;19926;-77
2023/08/04 08:38:34;;;;;;;5.05;1.10;;;;;;;18.51;74.41;101266.84;7397130;19;19955;-75
2023/08/04 08:41:02;;;;;;;3.45;1.00;;;;;;;18.51;73.83;101272.28;7397668;19;19922;-75
2023/08/04 08:43:31;;;;;;;4.43;1.30;;;;;;;18.44;74.34;101266.91;7397614;19;19939;-75
2023/08/04 08:46:03;;;;;;;4.13;1.50;;;;;;;18.40;74.51;101276.56;7396263;19;20321;-76
2023/08/04 08:48:34;;;;;;;2.55;1.50;;;;;;;18.31;74.40;101287.94;7397214;19;20046;-75
2023/08/04 08:51:08;;;;;;;2.28;0.93;;;;;;;18.30;74.44;101289.00;7396968;19;19918;-75
2023/08/04 08:53:37;;;;;;;1.80;1.23;;;;;;;18.31;74.74;101293.41;7397624;19;19922;-75
2023/08/04 08:56:08;;;;;;;3.20;1.00;;;;;;;18.32;73.78;101290.47;7397549;19;20653;-74
2023/08/04 08:58:38;;;;;;;2.35;0.90;;;;;;;18.33;73.51;101305.78;7396976;19;19939;-75
2023/08/04 09:01:09;;;;;;;3.90;0.70;;;;;;;18.30;72.33;101305.34;7394103;19;19947;-75
2023/08/04 09:03:39;;;;;;;3.78;1.10;;;;;;;18.38;73.09;101302.41;7392758;19;20349;-75
2023/08/04 09:06:07;;;;;;;5.70;1.77;;;;;;;18.46;72.48;101302.16;7395172;19;19922;-78
2023/08/04 09:08:37;;;;;;;3.65;0.80;;;;;;;18.47;72.13;101299.19;7345845;19;19918;-76
2023/08/04 09:11:05;;;;;;;2.00;0.85;;;;;;;18.48;72.06;101302.75;7380040;19;19922;-76
2023/08/04 09:13:35;;;;;;;3.67;0.90;;;;;;;18.47;72.31;101296.47;7385071;19;19939;-75
2023/08/04 09:16:04;;;;;;;7.43;2.08;;;;;;;18.47;72.12;101309.25;7397473;19;19925;-76
2023/08/04 09:18:38;;;;;;;4.00;1.50;;;;;;;18.49;72.23;101309.91;7398689;19;20321;-78
2023/08/04 09:21:13;;;;;;;3.53;1.00;;;;;;;18.59;71.77;101305.66;7397022;19;20282;-74
2023/08/04 09:23:45;;;;;;;3.78;1.40;;;;;;;18.68;70.70;101314.41;7395852;19;19934;-74
2023/08/04 09:26:13;;;;;;;;;;;;;;;18.65;70.71;101298.50;7395649;19;19955;-74
2023/08/04 09:28:42;;;;;;;4.25;1.15;;;;;;;18.85;71.79;101304.69;7393271;19;19926;-74
2023/08/04 09:31:12;;;;;;;4.30;1.15;;;;;;;18.91;70.94;101301.03;7396958;19;19948;-74
2023/08/04 09:33:45;;;;;;;1.77;0.75;;;;;;;18.87;69.04;101299.81;7371890;19;19965;-74
2023/08/04 09:36:15;;;;;;;8.07;1.55;;;;;;;18.77;70.67;101317.75;7388105;19;19951;-74
2023/08/04 09:38:44;;;;;;;1.58;0.85;;;;;;;18.65;71.65;101314.88;7394603;19;19926;-74
2023/08/04 09:41:15;;;;;;;2.28;0.98;;;;;;;18.62;71.26;101318.03;7396423;19;19937;-74
2023/08/04 09:43:52;;;;;;;4.53;1.20;;;;;;;18.59;71.87;101319.28;7396916;19;20333;-74
2023/08/04 09:46:20;;;;;;;23.27;5.10;;;;;;;18.60;72.43;101322.88;7396007;19;19922;-74
2023/08/04 09:48:52;;;;;;;2.78;0.73;;;;;;;18.56;71.50;101327.09;7399160;19;19993;-75
2023/08/04 09:51:21;;;;;;;3.58;0.80;;;;;;;18.53;72.63;101319.34;7397384;19;19926;-75
2023/08/04 09:53:51;;;;;;;2.05;0.93;;;;;;;18.59;72.05;101326.69;7394333;19;19939;-76
2023/08/04 09:56:21;;;;;;;2.17;0.80;;;;;;;18.58;72.40;101320.38;7395028;19;19947;-75
2023/08/04 09:58:51;;;;;;;3.17;0.82;;;;;;;18.62;72.05;101318.03;7401671;19;19922;-75
2023/08/04 10:01:20;;;;;;;2.53;0.93;;;;;;;18.81;71.89;101325.25;7399276;19;19923;-77
2023/08/04 10:03:57;;;;;;;3.17;0.93;;;;;;;18.93;70.59;101328.13;7401176;19;19920;-77
2023/08/04 10:06:26;;;;;;;4.95;1.15;;;;;;;18.94;73.08;101327.91;7402164;19;19918;-77
2023/08/04 10:08:57;;;;;;;4.90;1.15;;;;;;;18.90;73.53;101331.28;7400246;19;19947;-75
2023/08/04 10:11:26;;;;;;;4.35;1.13;;;;;;;18.85;74.38;101336.59;7403343;19;19927;-76
2023/08/04 10:13:56;;;;;;;3.85;1.30;;;;;;;18.86;74.92;101324.59;7403180;19;19926;-76
2023/08/04 10:16:30;;;;;;;3.20;1.17;;;;;;;19.20;73.56;101329.59;7402176;19;19918;-76
2023/08/04 10:19:05;;;;;;;4.55;1.38;;;;;;;19.32;71.55;101313.34;7401476;19;19938;-77
2023/08/04 10:21:36;;;;;;;3.70;1.08;;;;;;;19.48;72.05;101312.78;7401894;19;19923;-77
2023/08/04 10:24:06;;;;;;;3.70;1.27;;;;;;;19.41;71.93;101325.66;7400922;19;19948;-76
2023/08/04 10:26:36;;;;;;;5.55;1.60;;;;;;;19.27;72.62;101322.19;7402270;19;19979;-76
2023/08/04 10:29:10;;;;;;;4.78;1.10;;;;;;;19.07;73.31;101326.97;7399765;19;19915;-76
2023/08/04 10:31:47;;;;;;;3.47;1.52;;;;;;;18.86;73.33;101332.78;7401715;19;19926;-76
2023/08/04 10:34:25;;;;;;;4.18;1.02;;;;;;;18.81;72.66;101325.25;7399815;19;19927;-76
2023/08/04 10:37:00;;;;;;;5.88;1.50;;;;;;;18.82;73.63;101326.09;7401129;19;19930;-76
2023/08/04 10:39:30;;;;;;;4.40;1.23;;;;;;;18.83;73.36;101328.63;7399564;19;20326;-76
2023/08/04 10:41:59;;;;;;;3.65;1.30;;;;;;;18.92;72.92;101327.28;7401338;19;19922;-76
2023/08/04 10:44:31;;;;;;;7.88;2.15;;;;;;;19.26;72.90;101325.97;7398990;19;19979;-76
2023/08/04 10:47:04;;;;;;;6.60;1.63;;;;;;;19.33;71.89;101331.38;7400479;19;19943;-76
2023/08/04 10:49:35;;;;;;;3.42;1.23;;;;;;;19.51;71.32;101334.19;7397623;19;20345;-76
2023/08/04 10:52:04;;;;;;;2.58;0.65;;;;;;;19.46;69.25;101336.75;7400041;19;20361;-76
2023/08/04 10:54:33;;;;;;;6.03;1.00;;;;;;;19.55;68.15;101338.16;7399284;19;19926;-77
2023/08/04 10:57:01;;;;;;;3.75;1.20;;;;;;;19.79;68.15;101337.28;7400122;19;19961;-77
2023/08/04 10:59:32;;;;;;;5.55;1.10;;;;;;;20.12;65.51;101336.06;7396703;19;19947;-77
2023/08/04 11:02:00;;;;;;;3.97;1.00;;;;;;;20.27;64.65;101326.44;7399893;19;19923;-77
2023/08/04 11:04:29;;;;;;;7.90;2.45;;;;;;;20.48;64.19;101335.25;7399009;19;19944;-77
2023/08/04 11:07:03;;;;;;;2.92;0.90;;;;;;;20.49;63.78;101325.97;7399126;19;19915;-77
2023/08/04 11:09:34;;;;;;;3.20;1.20;;;;;;;20.35;65.04;101337.09;7397678;19;19919;-77
2023/08/04 11:12:03;;;;;;;1.50;0.80;;;;;;;20.25;64.91;101323.06;7400191;19;19939;-77
2023/08/04 11:14:32;;;;;;;2.80;0.90;;;;;;;20.13;64.56;101341.34;7399107;19;19930;-77
2023/08/04 11:17:01;;;;;;;3.55;0.85;;;;;;;20.13;64.37;101345.97;7400245;19;19934;-77
2023/08/04 11:19:31;;;;;;;2.17;0.77;;;;;;;20.23;64.20;101346.28;7399827;19;20393;-77
2023/08/04 11:22:09;;;;;;;2.15;0.73;;;;;;;20.10;63.83;101350.00;7399067;19;20010;-77
2023/08/04 11:24:38;;;;;;;7.30;1.67;;;;;;;20.02;64.68;101354.94;7398070;19;20033;-77
2023/08/04 11:27:08;;;;;;;5.00;0.88;;;;;;;19.98;65.89;101356.44;7399494;19;20287;-77
2023/08/04 11:29:36;;;;;;;4.30;1.00;;;;;;;19.99;65.00;101367.16;7398125;19;19926;-77
2023/08/04 11:32:12;;;;;;;4.82;0.85;;;;;;;19.87;63.52;101372.53;7399363;19;19918;-77
2023/08/04 11:34:42;;;;;;;3.08;0.75;;;;;;;19.88;65.35;101363.28;7399269;19;19955;-77
2023/08/04 11:37:13;;;;;;;2.85;1.00;;;;;;;19.94;65.09;101370.56;7399963;19;20254;-77